Time;durP1;ratioP1;P1;durP2;ratioP2;P2;SDS_P1;SDS_P2;PMS_P1;PMS_P2;Temp;Humidity;BMP_temperature;BMP_pressure;BME280_temperature;BME280_humidity;BME280_pressure;Samples;Min_cycle;Max_cycle;Signal;HPM_P1;HPM_P2
2023/10/24 00:01:41;;;;;;;11.63;6.13;;;;;;;;;;4808709;29;20085;-90
2023/10/24 00:04:25;;;;;;;11.68;6.05;;;;;;;;;;4790277;29;20106;-89
2023/10/24 00:07:23;;;;;;;13.52;6.70;;;;;;;;;;4795960;30;20081;-89
2023/10/24 00:10:30;;;;;;;12.55;6.85;;;;;;;;;;4803676;29;20122;-89
2023/10/24 00:13:45;;;;;;;10.40;6.28;;;;;;;;;;4796748;29;20043;-90
2023/10/24 00:16:57;;;;;;;;;;;;;;;;;;;;;
2023/10/24 00:19:40;;;;;;;12.07;7.72;;;;;;;;;;4796427;29;20059;-89
2023/10/24 00:22:23;;;;;;;12.45;6.65;;;;;;;;;;4811617;29;20066;-90
2023/10/24 00:28:33;;;;;;;13.68;7.05;;;;;;;;;;4947757;29;20067;-90
2023/10/24 00:31:53;;;;;;;15.02;6.75;;;;;;;;;;4943318;29;20051;-90
2023/10/24 00:34:42;;;;;;;10.93;6.78;;;;;;;;;;4921140;29;20062;-90
2023/10/24 00:37:29;;;;;;;15.55;7.45;;;;;;;;;;4886643;29;20056;-91
2023/10/24 00:40:19;;;;;;;10.98;6.95;;;;;;;;;;4889883;29;20051;-90
2023/10/24 00:43:10;;;;;;;12.40;7.10;;;;;;;;;;4906057;29;20085;-89
2023/10/24 00:45:57;;;;;;;11.65;7.32;;;;;;;;;;4918753;29;20048;-90
2023/10/24 00:48:40;;;;;;;10.27;7.07;;;;;;;;;;4917352;29;20052;-89
2023/10/24 00:51:22;;;;;;;17.30;8.55;;;;;;;;;;4905017;29;20037;-91
2023/10/24 00:54:09;;;;;;;0.63;0.63;;;;;;;;;;4904179;29;20056;-90
2023/10/24 00:56:53;;;;;;;8.73;4.78;;;;;;;;;;4904222;29;20056;-90
2023/10/24 01:00:00;;;;;;;13.63;7.00;;;;;;;;;;4891348;29;20028;-90
2023/10/24 01:02:48;;;;;;;5.05;2.97;;;;;;;;;;4911144;29;20053;-89
2023/10/24 01:05:54;;;;;;;3.90;2.20;;;;;;;;;;4842993;29;20058;-89
2023/10/24 01:08:41;;;;;;;14.45;7.35;;;;;;;;;;4840146;29;20042;-90
2023/10/24 01:11:28;;;;;;;14.48;7.60;;;;;;;;;;4840490;29;20058;-90
2023/10/24 01:14:14;;;;;;;15.30;6.95;;;;;;;;;;4826812;29;20099;-90
2023/10/24 01:17:12;;;;;;;17.17;6.50;;;;;;;;;;4871701;29;20064;-89
2023/10/24 01:20:12;;;;;;;13.70;7.60;;;;;;;;;;4916760;29;20056;-90
2023/10/24 01:22:48;;;;;;;11.23;7.28;;;;;;;;;;4918465;29;20060;-90
2023/10/24 01:25:34;;;;;;;0.95;0.80;;;;;;;;;;4901965;29;20077;-90
2023/10/24 01:28:22;;;;;;;3.05;1.52;;;;;;;;;;4918237;29;20055;-89
2023/10/24 01:31:19;;;;;;;11.38;7.55;;;;;;;;;;4939989;29;20040;-89
2023/10/24 01:34:12;;;;;;;13.77;7.60;;;;;;;;;;4936618;29;20052;-90
2023/10/24 01:37:36;;;;;;;16.35;7.57;;;;;;;;;;4936854;29;20064;-87
2023/10/24 01:40:35;;;;;;;14.50;7.38;;;;;;;;;;4924379;29;20233;-88
2023/10/24 01:43:20;;;;;;;19.95;8.57;;;;;;;;;;4920621;29;20061;-89
2023/10/24 01:46:14;;;;;;;11.35;8.05;;;;;;;;;;4903658;29;20096;-88
2023/10/24 01:48:58;;;;;;;15.18;8.27;;;;;;;;;;4926243;29;20051;-90
2023/10/24 01:51:45;;;;;;;13.50;7.95;;;;;;;;;;4925858;29;20032;-90
2023/10/24 01:54:37;;;;;;;16.58;9.15;;;;;;;;;;4907966;29;20044;-91
2023/10/24 01:57:41;;;;;;;14.07;8.15;;;;;;;;;;4942078;29;20072;-89
2023/10/24 02:00:41;;;;;;;14.27;8.55;;;;;;;;;;4939824;29;20048;-90
2023/10/24 02:03:31;;;;;;;15.20;8.97;;;;;;;;;;4928714;29;20036;-88
2023/10/24 02:06:15;;;;;;;13.10;8.25;;;;;;;;;;4941685;29;20032;-88
2023/10/24 02:09:02;;;;;;;15.75;8.90;;;;;;;;;;4912880;29;20051;-88
2023/10/24 02:11:51;;;;;;;11.30;7.25;;;;;;;;;;4929332;29;20048;-89
2023/10/24 02:14:37;;;;;;;16.58;9.02;;;;;;;;;;4927984;29;20063;-88
2023/10/24 02:17:19;;;;;;;14.25;8.93;;;;;;;;;;4943516;29;20044;-87
2023/10/24 02:20:46;;;;;;;13.43;8.43;;;;;;;;;;4931186;29;20028;-90
2023/10/24 02:23:47;;;;;;;16.58;9.10;;;;;;;;;;4930446;29;20040;-89
2023/10/24 02:26:53;;;;;;;14.23;8.68;;;;;;;;;;4942873;29;20056;-89
2023/10/24 02:29:53;;;;;;;12.90;8.77;;;;;;;;;;4939310;29;20036;-88
2023/10/24 02:32:39;;;;;;;13.68;8.15;;;;;;;;;;4928563;29;20060;-88
2023/10/24 02:35:31;;;;;;;14.07;9.60;;;;;;;;;;4941914;29;20092;-89
2023/10/24 02:38:25;;;;;;;14.63;8.93;;;;;;;;;;4942695;29;20135;-89
2023/10/24 02:41:42;;;;;;;14.10;8.90;;;;;;;;;;4950367;29;20039;-89
2023/10/24 02:44:50;;;;;;;17.67;9.13;;;;;;;;;;4961327;29;20039;-90
2023/10/24 02:47:42;;;;;;;16.35;9.00;;;;;;;;;;4947269;29;20087;-89
2023/10/24 02:50:32;;;;;;;16.02;8.60;;;;;;;;;;4934710;29;20051;-89
2023/10/24 02:53:20;;;;;;;13.05;8.38;;;;;;;;;;4947611;29;20116;-88
2023/10/24 02:56:16;;;;;;;;;;;;;;;;;;;;;
2023/10/24 02:59:07;;;;;;;14.75;8.45;;;;;;;;;;4960960;29;20034;-90
2023/10/24 03:02:02;;;;;;;17.88;9.50;;;;;;;;;;4959167;29;20036;-89
2023/10/24 03:04:49;;;;;;;15.32;8.82;;;;;;;;;;4946732;29;20043;-87
2023/10/24 03:07:51;;;;;;;19.52;9.48;;;;;;;;;;4958881;29;20036;-88
2023/10/24 03:10:43;;;;;;;16.42;8.98;;;;;;;;;;4939601;29;20042;-90
2023/10/24 03:13:38;;;;;;;16.27;9.57;;;;;;;;;;4946651;29;20039;-91
2023/10/24 03:16:31;;;;;;;16.65;10.15;;;;;;;;;;4960532;29;20044;-89
2023/10/24 03:19:37;;;;;;;18.80;10.32;;;;;;;;;;4947443;29;20056;-88
2023/10/24 03:22:38;;;;;;;13.07;9.10;;;;;;;;;;4904405;29;20045;-89
2023/10/24 04:04:19;;;;;;;23.20;9.77;;;;;;;;;;4937079;28;20029;-91
2023/10/24 22:23:34;;;;;;;35.55;19.63;;;;;;;;;;3298792;23;20299;-87
2023/10/24 23:11:27;;;;;;;44.45;23.58;;;;;;;;;;5763993;23;20095;-88
